sensor_id;sensor_type;location;lat;lon;timestamp;temperature;humidity
4435;DHT22;46552;52.150;8.428;2023-10-19T00:01:07;10.30;99.90
4435;DHT22;46552;52.150;8.428;2023-10-19T00:03:37;10.30;99.90
4435;DHT22;46552;52.150;8.428;2023-10-19T00:06:03;10.20;99.90
4435;DHT22;46552;52.150;8.428;2023-10-19T00:08:31;10.20;99.90
4435;DHT22;46552;52.150;8.428;2023-10-19T00:11:08;10.20;99.90
4435;DHT22;46552;52.150;8.428;2023-10-19T00:13:38;10.20;99.90
4435;DHT22;46552;52.150;8.428;2023-10-19T00:16:05;10.20;99.90
4435;DHT22;46552;52.150;8.428;2023-10-19T00:18:37;10.20;99.90
4435;DHT22;46552;52.150;8.428;2023-10-19T00:21:08;10.20;99.90
4435;DHT22;46552;52.150;8.428;2023-10-19T00:23:44;10.20;99.90
4435;DHT22;46552;52.150;8.428;2023-10-19T00:26:14;10.20;99.90
4435;DHT22;46552;52.150;8.428;2023-10-19T00:28:45;10.20;99.90
4435;DHT22;46552;52.150;8.428;2023-10-19T00:31:15;10.20;99.90
4435;DHT22;46552;52.150;8.428;2023-10-19T00:33:45;10.10;99.90
4435;DHT22;46552;52.150;8.428;2023-10-19T00:36:13;10.10;99.90
4435;DHT22;46552;52.150;8.428;2023-10-19T00:38:41;10.10;99.90
4435;DHT22;46552;52.150;8.428;2023-10-19T00:41:19;10.10;99.90
4435;DHT22;46552;52.150;8.428;2023-10-19T00:43:50;10.10;99.90
4435;DHT22;46552;52.150;8.428;2023-10-19T00:46:23;10.00;99.90
4435;DHT22;46552;52.150;8.428;2023-10-19T00:48:59;10.00;99.90
4435;DHT22;46552;52.150;8.428;2023-10-19T00:51:27;9.90;99.90
4435;DHT22;46552;52.150;8.428;2023-10-19T00:54:09;9.90;99.90
4435;DHT22;46552;52.150;8.428;2023-10-19T00:56:42;9.90;99.90
4435;DHT22;46552;52.150;8.428;2023-10-19T00:59:13;9.90;99.90
4435;DHT22;46552;52.150;8.428;2023-10-19T01:01:41;9.90;99.90
4435;DHT22;46552;52.150;8.428;2023-10-19T01:04:13;9.90;99.90
4435;DHT22;46552;52.150;8.428;2023-10-19T01:06:41;9.80;99.90
4435;DHT22;46552;52.150;8.428;2023-10-19T01:09:26;9.80;99.90
4435;DHT22;46552;52.150;8.428;2023-10-19T01:11:57;9.80;99.90
4435;DHT22;46552;52.150;8.428;2023-10-19T01:14:27;9.80;99.90
4435;DHT22;46552;52.150;8.428;2023-10-19T01:16:55;9.90;99.90
4435;DHT22;46552;52.150;8.428;2023-10-19T01:19:22;9.80;99.90
4435;DHT22;46552;52.150;8.428;2023-10-19T01:21:53;9.90;99.90
4435;DHT22;46552;52.150;8.428;2023-10-19T01:24:27;9.80;99.90
4435;DHT22;46552;52.150;8.428;2023-10-19T01:27:05;9.90;99.90
4435;DHT22;46552;52.150;8.428;2023-10-19T01:29:35;9.90;99.90
4435;DHT22;46552;52.150;8.428;2023-10-19T01:32:03;9.80;99.90
4435;DHT22;46552;52.150;8.428;2023-10-19T01:34:34;9.90;99.90
4435;DHT22;46552;52.150;8.428;2023-10-19T01:37:01;9.80;99.90
4435;DHT22;46552;52.150;8.428;2023-10-19T01:39:33;9.80;99.90
4435;DHT22;46552;52.150;8.428;2023-10-19T01:42:03;9.90;99.90
4435;DHT22;46552;52.150;8.428;2023-10-19T01:44:30;9.80;99.90
4435;DHT22;46552;52.150;8.428;2023-10-19T01:46:58;9.80;99.90
4435;DHT22;46552;52.150;8.428;2023-10-19T01:49:30;9.80;99.90
4435;DHT22;46552;52.150;8.428;2023-10-19T01:51:56;9.80;99.90
4435;DHT22;46552;52.150;8.428;2023-10-19T01:54:23;9.80;99.90
4435;DHT22;46552;52.150;8.428;2023-10-19T01:56:54;9.80;99.90
4435;DHT22;46552;52.150;8.428;2023-10-19T01:59:22;9.90;99.90
4435;DHT22;46552;52.150;8.428;2023-10-19T02:01:52;9.80;99.90
4435;DHT22;46552;52.150;8.428;2023-10-19T02:04:20;9.80;99.90
4435;DHT22;46552;52.150;8.428;2023-10-19T02:06:48;9.80;99.90
4435;DHT22;46552;52.150;8.428;2023-10-19T02:09:17;9.80;99.90
4435;DHT22;46552;52.150;8.428;2023-10-19T02:11:44;9.80;99.90
4435;DHT22;46552;52.150;8.428;2023-10-19T02:14:16;9.80;99.90
4435;DHT22;46552;52.150;8.428;2023-10-19T02:16:46;9.80;99.90
4435;DHT22;46552;52.150;8.428;2023-10-19T02:19:13;9.80;99.90
4435;DHT22;46552;52.150;8.428;2023-10-19T02:21:40;9.80;99.90
4435;DHT22;46552;52.150;8.428;2023-10-19T02:24:08;9.80;99.90
4435;DHT22;46552;52.150;8.428;2023-10-19T02:26:37;9.80;99.90
4435;DHT22;46552;52.150;8.428;2023-10-19T02:29:04;9.80;99.90
4435;DHT22;46552;52.150;8.428;2023-10-19T02:31:35;9.80;99.90
4435;DHT22;46552;52.150;8.428;2023-10-19T02:34:03;9.80;99.90
4435;DHT22;46552;52.150;8.428;2023-10-19T02:36:31;9.80;99.90
4435;DHT22;46552;52.150;8.428;2023-10-19T02:38:59;9.80;99.90
4435;DHT22;46552;52.150;8.428;2023-10-19T02:41:29;9.70;99.90
4435;DHT22;46552;52.150;8.428;2023-10-19T02:43:55;9.70;99.90
4435;DHT22;46552;52.150;8.428;2023-10-19T02:46:36;9.80;99.90
4435;DHT22;46552;52.150;8.428;2023-10-19T02:49:05;9.80;99.90
4435;DHT22;46552;52.150;8.428;2023-10-19T02:51:36;9.80;99.90
4435;DHT22;46552;52.150;8.428;2023-10-19T02:54:03;9.70;99.90
4435;DHT22;46552;52.150;8.428;2023-10-19T02:56:31;9.70;99.90
4435;DHT22;46552;52.150;8.428;2023-10-19T02:58:57;9.70;99.90
4435;DHT22;46552;52.150;8.428;2023-10-19T03:01:30;9.70;99.90
4435;DHT22;46552;52.150;8.428;2023-10-19T03:03:59;9.70;99.90
4435;DHT22;46552;52.150;8.428;2023-10-19T03:06:28;9.70;99.90
4435;DHT22;46552;52.150;8.428;2023-10-19T03:08:57;9.70;99.90
4435;DHT22;46552;52.150;8.428;2023-10-19T03:11:27;9.80;99.90
4435;DHT22;46552;52.150;8.428;2023-10-19T03:13:53;9.80;99.90
4435;DHT22;46552;52.150;8.428;2023-10-19T03:16:22;9.70;99.90
4435;DHT22;46552;52.150;8.428;2023-10-19T03:18:49;9.70;99.90
4435;DHT22;46552;52.150;8.428;2023-10-19T03:21:18;9.80;99.90
4435;DHT22;46552;52.150;8.428;2023-10-19T03:23:45;9.80;99.90
4435;DHT22;46552;52.150;8.428;2023-10-19T03:26:12;9.80;99.90
4435;DHT22;46552;52.150;8.428;2023-10-19T03:28:56;9.80;99.90
4435;DHT22;46552;52.150;8.428;2023-10-19T03:31:27;9.80;99.90
4435;DHT22;46552;52.150;8.428;2023-10-19T03:33:54;9.80;99.90
4435;DHT22;46552;52.150;8.428;2023-10-19T03:36:24;9.80;99.90
4435;DHT22;46552;52.150;8.428;2023-10-19T03:38:51;9.80;99.90
4435;DHT22;46552;52.150;8.428;2023-10-19T03:41:19;9.80;99.90
4435;DHT22;46552;52.150;8.428;2023-10-19T03:43:49;9.80;99.90
4435;DHT22;46552;52.150;8.428;2023-10-19T03:46:18;9.90;99.90
4435;DHT22;46552;52.150;8.428;2023-10-19T03:48:55;9.90;99.90
4435;DHT22;46552;52.150;8.428;2023-10-19T03:51:28;9.90;99.90
4435;DHT22;46552;52.150;8.428;2023-10-19T03:54:05;9.90;99.90
4435;DHT22;46552;52.150;8.428;2023-10-19T03:56:48;10.00;99.90
4435;DHT22;46552;52.150;8.428;2023-10-19T03:59:16;10.00;99.90
4435;DHT22;46552;52.150;8.428;2023-10-19T04:01:43;10.00;99.90
4435;DHT22;46552;52.150;8.428;2023-10-19T04:04:10;10.00;99.90
4435;DHT22;46552;52.150;8.428;2023-10-19T04:06:40;10.10;99.90
4435;DHT22;46552;52.150;8.428;2023-10-19T04:09:11;10.10;99.90
4435;DHT22;46552;52.150;8.428;2023-10-19T04:11:40;10.10;99.90
4435;DHT22;46552;52.150;8.428;2023-10-19T04:14:14;10.10;99.90
4435;DHT22;46552;52.150;8.428;2023-10-19T04:16:42;10.10;99.90
4435;DHT22;46552;52.150;8.428;2023-10-19T04:19:10;10.10;99.90
4435;DHT22;46552;52.150;8.428;2023-10-19T04:21:37;10.10;99.90
4435;DHT22;46552;52.150;8.428;2023-10-19T04:24:07;10.10;99.90
4435;DHT22;46552;52.150;8.428;2023-10-19T04:26:35;10.10;99.90
4435;DHT22;46552;52.150;8.428;2023-10-19T04:29:03;10.10;99.90
4435;DHT22;46552;52.150;8.428;2023-10-19T04:31:36;10.10;99.90
4435;DHT22;46552;52.150;8.428;2023-10-19T04:34:08;10.10;99.90
4435;DHT22;46552;52.150;8.428;2023-10-19T04:36:35;10.10;99.90
4435;DHT22;46552;52.150;8.428;2023-10-19T04:39:06;10.10;99.90
4435;DHT22;46552;52.150;8.428;2023-10-19T04:41:37;10.20;99.90
4435;DHT22;46552;52.150;8.428;2023-10-19T04:44:07;10.10;99.90
4435;DHT22;46552;52.150;8.428;2023-10-19T04:46:34;10.20;99.90
4435;DHT22;46552;52.150;8.428;2023-10-19T04:49:02;10.20;99.90
4435;DHT22;46552;52.150;8.428;2023-10-19T04:51:30;10.20;99.90
4435;DHT22;46552;52.150;8.428;2023-10-19T04:53:59;10.20;99.90
4435;DHT22;46552;52.150;8.428;2023-10-19T04:56:28;10.20;99.90
4435;DHT22;46552;52.150;8.428;2023-10-19T04:58:55;10.20;99.90
4435;DHT22;46552;52.150;8.428;2023-10-19T05:01:22;10.20;99.90
4435;DHT22;46552;52.150;8.428;2023-10-19T05:03:50;10.20;99.90
4435;DHT22;46552;52.150;8.428;2023-10-19T05:06:17;10.20;99.90
4435;DHT22;46552;52.150;8.428;2023-10-19T05:08:44;10.20;99.90
4435;DHT22;46552;52.150;8.428;2023-10-19T05:11:13;10.30;99.90
4435;DHT22;46552;52.150;8.428;2023-10-19T05:13:41;10.30;99.90
4435;DHT22;46552;52.150;8.428;2023-10-19T05:16:08;10.30;99.90
4435;DHT22;46552;52.150;8.428;2023-10-19T05:18:36;10.30;99.90
4435;DHT22;46552;52.150;8.428;2023-10-19T05:21:04;10.30;99.90
4435;DHT22;46552;52.150;8.428;2023-10-19T05:23:31;10.30;99.90
4435;DHT22;46552;52.150;8.428;2023-10-19T05:26:01;10.30;99.90
4435;DHT22;46552;52.150;8.428;2023-10-19T05:28:29;10.30;99.90
4435;DHT22;46552;52.150;8.428;2023-10-19T05:30:58;10.30;99.90
4435;DHT22;46552;52.150;8.428;2023-10-19T05:33:27;10.30;99.90
4435;DHT22;46552;52.150;8.428;2023-10-19T05:35:55;10.30;99.90
4435;DHT22;46552;52.150;8.428;2023-10-19T05:38:22;10.40;99.90
4435;DHT22;46552;52.150;8.428;2023-10-19T05:40:49;10.30;99.90
4435;DHT22;46552;52.150;8.428;2023-10-19T05:43:18;10.40;99.90
4435;DHT22;46552;52.150;8.428;2023-10-19T05:45:45;10.40;99.90
4435;DHT22;46552;52.150;8.428;2023-10-19T05:48:17;10.40;99.90
4435;DHT22;46552;52.150;8.428;2023-10-19T05:50:44;10.40;99.90
4435;DHT22;46552;52.150;8.428;2023-10-19T05:53:12;10.40;99.90
4435;DHT22;46552;52.150;8.428;2023-10-19T05:55:39;10.40;99.90
4435;DHT22;46552;52.150;8.428;2023-10-19T05:58:07;10.40;99.90
4435;DHT22;46552;52.150;8.428;2023-10-19T06:00:34;10.40;99.90
4435;DHT22;46552;52.150;8.428;2023-10-19T06:03:02;10.40;99.90
4435;DHT22;46552;52.150;8.428;2023-10-19T06:05:31;10.50;99.90
4435;DHT22;46552;52.150;8.428;2023-10-19T06:07:59;10.40;99.90
4435;DHT22;46552;52.150;8.428;2023-10-19T06:10:28;10.50;99.90
4435;DHT22;46552;52.150;8.428;2023-10-19T06:12:56;10.50;99.90
4435;DHT22;46552;52.150;8.428;2023-10-19T06:15:24;10.50;99.90
4435;DHT22;46552;52.150;8.428;2023-10-19T06:17:51;10.50;99.90
4435;DHT22;46552;52.150;8.428;2023-10-19T06:20:19;10.50;99.90
4435;DHT22;46552;52.150;8.428;2023-10-19T06:22:55;10.50;99.90
4435;DHT22;46552;52.150;8.428;2023-10-19T06:25:26;10.50;99.90
4435;DHT22;46552;52.150;8.428;2023-10-19T06:27:53;10.50;99.90
4435;DHT22;46552;52.150;8.428;2023-10-19T06:30:23;10.50;99.90
4435;DHT22;46552;52.150;8.428;2023-10-19T06:32:53;10.50;99.90
4435;DHT22;46552;52.150;8.428;2023-10-19T06:35:21;10.50;99.90
4435;DHT22;46552;52.150;8.428;2023-10-19T06:37:49;10.50;99.90
4435;DHT22;46552;52.150;8.428;2023-10-19T06:40:18;10.50;99.90
4435;DHT22;46552;52.150;8.428;2023-10-19T06:42:46;10.50;99.90
4435;DHT22;46552;52.150;8.428;2023-10-19T06:45:15;10.50;99.90
4435;DHT22;46552;52.150;8.428;2023-10-19T06:47:43;10.60;99.90
4435;DHT22;46552;52.150;8.428;2023-10-19T06:50:12;10.60;99.90
4435;DHT22;46552;52.150;8.428;2023-10-19T06:52:42;10.60;99.90
4435;DHT22;46552;52.150;8.428;2023-10-19T06:55:10;10.60;99.90
4435;DHT22;46552;52.150;8.428;2023-10-19T06:57:41;10.60;99.90
4435;DHT22;46552;52.150;8.428;2023-10-19T07:00:10;10.60;99.90
4435;DHT22;46552;52.150;8.428;2023-10-19T07:02:40;10.70;99.90
4435;DHT22;46552;52.150;8.428;2023-10-19T07:05:09;10.70;99.90
4435;DHT22;46552;52.150;8.428;2023-10-19T07:07:39;10.70;99.90
4435;DHT22;46552;52.150;8.428;2023-10-19T07:10:07;10.70;99.90
4435;DHT22;46552;52.150;8.428;2023-10-19T07:12:35;10.70;99.90
4435;DHT22;46552;52.150;8.428;2023-10-19T07:15:06;10.80;99.90
4435;DHT22;46552;52.150;8.428;2023-10-19T07:17:35;10.80;99.90
4435;DHT22;46552;52.150;8.428;2023-10-19T07:20:04;10.80;99.90
4435;DHT22;46552;52.150;8.428;2023-10-19T07:22:33;10.90;99.90
4435;DHT22;46552;52.150;8.428;2023-10-19T07:25:00;10.90;99.90
4435;DHT22;46552;52.150;8.428;2023-10-19T07:27:31;10.90;99.90
4435;DHT22;46552;52.150;8.428;2023-10-19T07:29:59;10.90;99.90
4435;DHT22;46552;52.150;8.428;2023-10-19T07:32:28;10.90;99.90
4435;DHT22;46552;52.150;8.428;2023-10-19T07:34:58;10.90;99.90
4435;DHT22;46552;52.150;8.428;2023-10-19T07:37:24;11.00;99.90
4435;DHT22;46552;52.150;8.428;2023-10-19T07:39:53;11.10;99.90
4435;DHT22;46552;52.150;8.428;2023-10-19T07:42:22;11.10;99.90
4435;DHT22;46552;52.150;8.428;2023-10-19T07:44:51;11.10;99.90
4435;DHT22;46552;52.150;8.428;2023-10-19T07:47:19;11.10;99.90
4435;DHT22;46552;52.150;8.428;2023-10-19T07:49:48;11.20;99.90
4435;DHT22;46552;52.150;8.428;2023-10-19T07:52:17;11.30;99.90
4435;DHT22;46552;52.150;8.428;2023-10-19T07:54:45;11.30;99.90
4435;DHT22;46552;52.150;8.428;2023-10-19T07:57:13;11.40;99.90
4435;DHT22;46552;52.150;8.428;2023-10-19T07:59:41;11.40;99.90
4435;DHT22;46552;52.150;8.428;2023-10-19T08:02:08;11.40;99.90
4435;DHT22;46552;52.150;8.428;2023-10-19T08:04:37;11.50;99.90
4435;DHT22;46552;52.150;8.428;2023-10-19T08:07:06;11.50;99.90
4435;DHT22;46552;52.150;8.428;2023-10-19T08:09:33;11.60;99.90
4435;DHT22;46552;52.150;8.428;2023-10-19T08:12:01;11.60;99.90
4435;DHT22;46552;52.150;8.428;2023-10-19T08:14:31;11.60;99.90
4435;DHT22;46552;52.150;8.428;2023-10-19T08:16:58;11.60;99.90
4435;DHT22;46552;52.150;8.428;2023-10-19T08:19:27;11.60;99.90
4435;DHT22;46552;52.150;8.428;2023-10-19T08:21:56;11.60;99.90
4435;DHT22;46552;52.150;8.428;2023-10-19T08:24:25;11.60;99.90
4435;DHT22;46552;52.150;8.428;2023-10-19T08:26:55;11.60;99.90
4435;DHT22;46552;52.150;8.428;2023-10-19T08:29:22;11.60;99.90
4435;DHT22;46552;52.150;8.428;2023-10-19T08:31:50;11.60;99.90
4435;DHT22;46552;52.150;8.428;2023-10-19T08:34:18;11.60;99.90
4435;DHT22;46552;52.150;8.428;2023-10-19T08:36:46;11.70;99.90
4435;DHT22;46552;52.150;8.428;2023-10-19T08:39:14;11.70;99.90
4435;DHT22;46552;52.150;8.428;2023-10-19T08:41:45;11.70;99.90
4435;DHT22;46552;52.150;8.428;2023-10-19T08:44:14;11.80;99.90
4435;DHT22;46552;52.150;8.428;2023-10-19T08:46:43;11.90;99.90
4435;DHT22;46552;52.150;8.428;2023-10-19T08:49:11;12.00;99.90
4435;DHT22;46552;52.150;8.428;2023-10-19T08:51:38;12.00;99.90
4435;DHT22;46552;52.150;8.428;2023-10-19T08:54:06;12.10;99.90
4435;DHT22;46552;52.150;8.428;2023-10-19T08:56:36;12.10;99.90
4435;DHT22;46552;52.150;8.428;2023-10-19T08:59:06;12.30;99.90
4435;DHT22;46552;52.150;8.428;2023-10-19T09:01:33;12.60;99.90
4435;DHT22;46552;52.150;8.428;2023-10-19T09:04:01;12.90;99.90
4435;DHT22;46552;52.150;8.428;2023-10-19T09:06:29;13.10;99.90
4435;DHT22;46552;52.150;8.428;2023-10-19T09:08:57;13.30;99.90
4435;DHT22;46552;52.150;8.428;2023-10-19T09:11:25;13.40;99.90
4435;DHT22;46552;52.150;8.428;2023-10-19T09:13:53;13.60;99.90
4435;DHT22;46552;52.150;8.428;2023-10-19T09:16:24;14.30;99.90
4435;DHT22;46552;52.150;8.428;2023-10-19T09:18:52;15.50;99.90
4435;DHT22;46552;52.150;8.428;2023-10-19T09:21:20;16.10;99.90
4435;DHT22;46552;52.150;8.428;2023-10-19T09:23:54;16.20;99.90
4435;DHT22;46552;52.150;8.428;2023-10-19T09:26:22;16.10;99.90
4435;DHT22;46552;52.150;8.428;2023-10-19T09:28:51;15.90;99.90
4435;DHT22;46552;52.150;8.428;2023-10-19T09:31:20;15.60;99.90
4435;DHT22;46552;52.150;8.428;2023-10-19T09:33:51;15.50;99.90
4435;DHT22;46552;52.150;8.428;2023-10-19T09:36:19;15.20;99.90
4435;DHT22;46552;52.150;8.428;2023-10-19T09:38:50;15.00;99.90
4435;DHT22;46552;52.150;8.428;2023-10-19T09:41:21;14.90;99.90
4435;DHT22;46552;52.150;8.428;2023-10-19T09:43:50;14.80;99.90
4435;DHT22;46552;52.150;8.428;2023-10-19T09:46:21;14.70;99.90
4435;DHT22;46552;52.150;8.428;2023-10-19T09:48:51;14.60;99.90
4435;DHT22;46552;52.150;8.428;2023-10-19T09:51:19;14.50;99.90
4435;DHT22;46552;52.150;8.428;2023-10-19T09:53:51;14.40;99.90
4435;DHT22;46552;52.150;8.428;2023-10-19T09:56:21;14.30;99.90
4435;DHT22;46552;52.150;8.428;2023-10-19T09:58:55;14.30;99.90
4435;DHT22;46552;52.150;8.428;2023-10-19T10:01:24;14.30;99.90
4435;DHT22;46552;52.150;8.428;2023-10-19T10:03:54;14.30;99.90
4435;DHT22;46552;52.150;8.428;2023-10-19T10:06:29;14.20;99.90
4435;DHT22;46552;52.150;8.428;2023-10-19T10:08:59;14.20;99.90
4435;DHT22;46552;52.150;8.428;2023-10-19T10:11:29;14.20;99.90
4435;DHT22;46552;52.150;8.428;2023-10-19T10:13:57;14.20;99.90
4435;DHT22;46552;52.150;8.428;2023-10-19T10:16:25;14.20;99.90
4435;DHT22;46552;52.150;8.428;2023-10-19T10:18:58;14.20;99.90
4435;DHT22;46552;52.150;8.428;2023-10-19T10:21:26;14.10;99.90
4435;DHT22;46552;52.150;8.428;2023-10-19T10:23:56;14.10;99.90
4435;DHT22;46552;52.150;8.428;2023-10-19T10:26:25;14.10;99.90
4435;DHT22;46552;52.150;8.428;2023-10-19T10:29:09;14.10;99.90
4435;DHT22;46552;52.150;8.428;2023-10-19T10:31:42;14.00;99.90
4435;DHT22;46552;52.150;8.428;2023-10-19T10:34:42;14.10;99.90
4435;DHT22;46552;52.150;8.428;2023-10-19T10:36:59;14.10;99.90
4435;DHT22;46552;52.150;8.428;2023-10-19T10:39:28;14.20;99.90
4435;DHT22;46552;52.150;8.428;2023-10-19T10:41:56;14.30;99.90
4435;DHT22;46552;52.150;8.428;2023-10-19T10:44:36;14.40;99.90
4435;DHT22;46552;52.150;8.428;2023-10-19T10:47:05;14.60;99.90
4435;DHT22;46552;52.150;8.428;2023-10-19T10:49:49;14.70;99.90
4435;DHT22;46552;52.150;8.428;2023-10-19T10:52:27;15.00;99.90
4435;DHT22;46552;52.150;8.428;2023-10-19T10:54:55;15.20;99.90
4435;DHT22;46552;52.150;8.428;2023-10-19T10:57:22;15.50;99.90
4435;DHT22;46552;52.150;8.428;2023-10-19T11:00:01;15.90;99.90
4435;DHT22;46552;52.150;8.428;2023-10-19T11:02:29;16.30;99.90
4435;DHT22;46552;52.150;8.428;2023-10-19T11:04:58;16.70;99.90
4435;DHT22;46552;52.150;8.428;2023-10-19T11:07:25;17.10;99.90
4435;DHT22;46552;52.150;8.428;2023-10-19T11:09:52;17.20;99.90
4435;DHT22;46552;52.150;8.428;2023-10-19T11:12:20;17.10;99.90
4435;DHT22;46552;52.150;8.428;2023-10-19T11:14:54;17.00;99.90
4435;DHT22;46552;52.150;8.428;2023-10-19T11:17:21;16.90;99.90
4435;DHT22;46552;52.150;8.428;2023-10-19T11:19:54;16.70;99.90
4435;DHT22;46552;52.150;8.428;2023-10-19T11:22:25;16.60;99.90
4435;DHT22;46552;52.150;8.428;2023-10-19T11:24:53;16.50;99.90
4435;DHT22;46552;52.150;8.428;2023-10-19T11:27:27;16.80;99.90
4435;DHT22;46552;52.150;8.428;2023-10-19T11:29:55;16.90;99.90
4435;DHT22;46552;52.150;8.428;2023-10-19T11:32:23;16.90;99.90
4435;DHT22;46552;52.150;8.428;2023-10-19T11:34:51;16.70;99.90
4435;DHT22;46552;52.150;8.428;2023-10-19T11:37:18;16.70;99.90
4435;DHT22;46552;52.150;8.428;2023-10-19T11:39:48;16.80;99.90
4435;DHT22;46552;52.150;8.428;2023-10-19T11:42:17;17.10;99.90
4435;DHT22;46552;52.150;8.428;2023-10-19T11:44:46;17.20;99.90
4435;DHT22;46552;52.150;8.428;2023-10-19T11:47:13;17.20;99.90
4435;DHT22;46552;52.150;8.428;2023-10-19T11:49:40;17.10;99.90
4435;DHT22;46552;52.150;8.428;2023-10-19T11:52:07;17.20;99.90
4435;DHT22;46552;52.150;8.428;2023-10-19T11:54:36;17.30;99.90
4435;DHT22;46552;52.150;8.428;2023-10-19T11:57:05;17.30;99.90
4435;DHT22;46552;52.150;8.428;2023-10-19T11:59:34;17.30;99.90
4435;DHT22;46552;52.150;8.428;2023-10-19T12:02:01;17.30;99.90
4435;DHT22;46552;52.150;8.428;2023-10-19T12:04:29;17.30;99.90
4435;DHT22;46552;52.150;8.428;2023-10-19T12:06:59;17.30;99.90
4435;DHT22;46552;52.150;8.428;2023-10-19T12:09:26;17.20;99.90
4435;DHT22;46552;52.150;8.428;2023-10-19T12:11:55;17.10;99.90
4435;DHT22;46552;52.150;8.428;2023-10-19T12:14:24;17.00;99.90
4435;DHT22;46552;52.150;8.428;2023-10-19T12:16:52;16.90;99.90
4435;DHT22;46552;52.150;8.428;2023-10-19T12:19:20;16.80;99.90
4435;DHT22;46552;52.150;8.428;2023-10-19T12:21:48;16.70;99.90
4435;DHT22;46552;52.150;8.428;2023-10-19T12:24:15;16.60;99.90
4435;DHT22;46552;52.150;8.428;2023-10-19T12:26:43;16.40;99.90
4435;DHT22;46552;52.150;8.428;2023-10-19T12:29:11;16.40;99.90
4435;DHT22;46552;52.150;8.428;2023-10-19T12:31:42;16.30;99.90
4435;DHT22;46552;52.150;8.428;2023-10-19T12:34:09;16.30;99.90
4435;DHT22;46552;52.150;8.428;2023-10-19T12:36:37;16.30;99.90
4435;DHT22;46552;52.150;8.428;2023-10-19T12:39:07;16.30;99.90
4435;DHT22;46552;52.150;8.428;2023-10-19T12:41:35;16.40;99.90
4435;DHT22;46552;52.150;8.428;2023-10-19T12:44:03;16.40;99.90
4435;DHT22;46552;52.150;8.428;2023-10-19T12:46:34;16.40;99.90
4435;DHT22;46552;52.150;8.428;2023-10-19T12:49:04;16.40;99.90
4435;DHT22;46552;52.150;8.428;2023-10-19T12:51:34;16.50;99.90
4435;DHT22;46552;52.150;8.428;2023-10-19T12:54:01;16.50;99.90
4435;DHT22;46552;52.150;8.428;2023-10-19T12:56:29;16.50;99.90
4435;DHT22;46552;52.150;8.428;2023-10-19T12:58:58;16.60;99.90
4435;DHT22;46552;52.150;8.428;2023-10-19T13:01:26;16.70;99.90
4435;DHT22;46552;52.150;8.428;2023-10-19T13:03:53;16.90;99.90
4435;DHT22;46552;52.150;8.428;2023-10-19T13:06:22;17.00;99.90
4435;DHT22;46552;52.150;8.428;2023-10-19T13:08:54;17.20;99.90
4435;DHT22;46552;52.150;8.428;2023-10-19T13:11:22;17.40;99.90
4435;DHT22;46552;52.150;8.428;2023-10-19T13:13:49;17.50;99.90
4435;DHT22;46552;52.150;8.428;2023-10-19T13:16:16;17.40;99.90
4435;DHT22;46552;52.150;8.428;2023-10-19T13:18:43;17.40;99.90
4435;DHT22;46552;52.150;8.428;2023-10-19T13:21:12;17.30;99.90
4435;DHT22;46552;52.150;8.428;2023-10-19T13:23:44;17.20;99.90
4435;DHT22;46552;52.150;8.428;2023-10-19T13:26:11;17.10;99.90
4435;DHT22;46552;52.150;8.428;2023-10-19T13:28:44;17.00;99.90
4435;DHT22;46552;52.150;8.428;2023-10-19T13:31:12;16.90;99.90
4435;DHT22;46552;52.150;8.428;2023-10-19T13:33:40;16.90;99.90
4435;DHT22;46552;52.150;8.428;2023-10-19T13:36:09;16.80;99.90
4435;DHT22;46552;52.150;8.428;2023-10-19T13:38:36;16.90;99.90
4435;DHT22;46552;52.150;8.428;2023-10-19T13:41:06;17.00;99.90
4435;DHT22;46552;52.150;8.428;2023-10-19T13:43:35;17.10;99.90
4435;DHT22;46552;52.150;8.428;2023-10-19T13:46:02;17.20;99.90
4435;DHT22;46552;52.150;8.428;2023-10-19T13:48:30;17.30;99.90
4435;DHT22;46552;52.150;8.428;2023-10-19T13:50:58;17.40;99.90
4435;DHT22;46552;52.150;8.428;2023-10-19T13:53:31;17.40;99.90
4435;DHT22;46552;52.150;8.428;2023-10-19T13:55:59;17.50;99.90
4435;DHT22;46552;52.150;8.428;2023-10-19T13:58:27;17.50;99.90
4435;DHT22;46552;52.150;8.428;2023-10-19T14:00:54;17.50;99.90
4435;DHT22;46552;52.150;8.428;2023-10-19T14:03:22;17.40;99.90
4435;DHT22;46552;52.150;8.428;2023-10-19T14:05:49;17.30;99.90
4435;DHT22;46552;52.150;8.428;2023-10-19T14:08:19;17.30;99.90
4435;DHT22;46552;52.150;8.428;2023-10-19T14:10:46;17.20;99.90
4435;DHT22;46552;52.150;8.428;2023-10-19T14:13:14;17.10;99.90
4435;DHT22;46552;52.150;8.428;2023-10-19T14:15:42;17.00;99.90
4435;DHT22;46552;52.150;8.428;2023-10-19T14:18:10;16.90;99.90
4435;DHT22;46552;52.150;8.428;2023-10-19T14:20:37;16.80;99.90
4435;DHT22;46552;52.150;8.428;2023-10-19T14:23:07;16.70;99.90
4435;DHT22;46552;52.150;8.428;2023-10-19T14:25:36;16.70;99.90
4435;DHT22;46552;52.150;8.428;2023-10-19T14:28:04;16.60;99.90
4435;DHT22;46552;52.150;8.428;2023-10-19T14:30:32;16.60;99.90
4435;DHT22;46552;52.150;8.428;2023-10-19T14:33:02;16.50;99.90
4435;DHT22;46552;52.150;8.428;2023-10-19T14:35:30;16.50;99.90
4435;DHT22;46552;52.150;8.428;2023-10-19T14:37:57;16.50;99.90
4435;DHT22;46552;52.150;8.428;2023-10-19T14:40:27;16.50;99.90
4435;DHT22;46552;52.150;8.428;2023-10-19T14:42:55;16.50;99.90
4435;DHT22;46552;52.150;8.428;2023-10-19T14:45:26;16.50;99.90
4435;DHT22;46552;52.150;8.428;2023-10-19T14:47:55;16.50;99.90
4435;DHT22;46552;52.150;8.428;2023-10-19T14:50:25;16.40;99.90
4435;DHT22;46552;52.150;8.428;2023-10-19T14:52:53;16.40;99.90
4435;DHT22;46552;52.150;8.428;2023-10-19T14:55:21;16.40;99.90
4435;DHT22;46552;52.150;8.428;2023-10-19T14:57:50;16.40;99.90
4435;DHT22;46552;52.150;8.428;2023-10-19T15:00:19;16.40;99.90
4435;DHT22;46552;52.150;8.428;2023-10-19T15:02:52;16.40;99.90
4435;DHT22;46552;52.150;8.428;2023-10-19T15:05:23;16.30;99.90
4435;DHT22;46552;52.150;8.428;2023-10-19T15:07:52;16.30;99.90
4435;DHT22;46552;52.150;8.428;2023-10-19T15:10:23;16.30;99.90
4435;DHT22;46552;52.150;8.428;2023-10-19T15:12:52;16.20;99.90
4435;DHT22;46552;52.150;8.428;2023-10-19T15:15:19;16.20;99.90
4435;DHT22;46552;52.150;8.428;2023-10-19T15:17:47;16.10;99.90
4435;DHT22;46552;52.150;8.428;2023-10-19T15:20:16;16.10;99.90
4435;DHT22;46552;52.150;8.428;2023-10-19T15:22:45;16.00;99.90
4435;DHT22;46552;52.150;8.428;2023-10-19T15:25:13;16.00;99.90
4435;DHT22;46552;52.150;8.428;2023-10-19T15:27:44;16.00;99.90
4435;DHT22;46552;52.150;8.428;2023-10-19T15:30:13;16.00;99.90
4435;DHT22;46552;52.150;8.428;2023-10-19T15:32:41;15.90;99.90
4435;DHT22;46552;52.150;8.428;2023-10-19T15:35:10;15.90;99.90
4435;DHT22;46552;52.150;8.428;2023-10-19T15:37:37;15.90;99.90
4435;DHT22;46552;52.150;8.428;2023-10-19T15:40:07;15.80;99.90
4435;DHT22;46552;52.150;8.428;2023-10-19T15:42:38;15.80;99.90
4435;DHT22;46552;52.150;8.428;2023-10-19T15:45:08;15.80;99.90
4435;DHT22;46552;52.150;8.428;2023-10-19T15:47:35;15.70;99.90
4435;DHT22;46552;52.150;8.428;2023-10-19T15:50:02;15.70;99.90
4435;DHT22;46552;52.150;8.428;2023-10-19T15:52:29;15.70;99.90
4435;DHT22;46552;52.150;8.428;2023-10-19T15:54:57;15.70;99.90
4435;DHT22;46552;52.150;8.428;2023-10-19T15:57:27;15.60;99.90
4435;DHT22;46552;52.150;8.428;2023-10-19T15:59:56;15.60;99.90
4435;DHT22;46552;52.150;8.428;2023-10-19T16:02:23;15.50;99.90